Terminal Aerodrome Forecast
Issued by NWS

Home | Current Version | Previous Version | Text Only | Print | Product List | Glossary On
Versions: 1 2 3 4 5 6 7 8 9 10 11 12 13 14 15 16 17 18 19 20 21 22 23 24 25 26 27 28 29 30 31 32 33 34 35 36 37 38 39 40 41 42
000
FTUS41 KRNK 200540
TAFBCB
TAF
KBCB 200540Z 2006/2106 00000KT 3SM BR SCT025
      TEMPO 2009/2013 3/4SM BR OVC008
     FM201300 VRB03KT P6SM SCT015 BKN100
     FM201800 23006KT P6SM VCTS BKN050CB
     FM202200 VRB03KT P6SM SCT060 BKN200
     FM210300 00000KT 4SM BR SCT007=

USA.gov is the U.S. government's official web portal to all federal, state and local government web resources and services.